Ares, Brazil
Current Conditions -  °F | °C
As of 5:00 PM on Sunday 25 Jan 2015 (Local Time) from SBNT Reporting Station
Scattered Clouds Scattered Clouds  
Wind Chill: 82°   Ceiling: Unl
Heat Index: 85°   Visibility: 6mi
Dew Point: 68°   Wind: 15mph
Humidity: 62%   Direction: 140°SE
Pressure: 29.85"   Gusts: NA
Location:  6.19°S, 35.16°W
Report Text: SBNT 252000Z 14013KT 9999 SCT023 28/20 Q1011
Loading
Personal Weather Stations






























Interactive Weather Map New forecast layout! Learn more

10-Day Weather Forecast

Advertisements
Track Severe Weather on mobile